Time;durP1;ratioP1;P1;durP2;ratioP2;P2;SDS_P1;SDS_P2;PMS_P1;PMS_P2;Temp;Humidity;BMP_temperature;BMP_pressure;BME280_temperature;BME280_humidity;BME280_pressure;Samples;Min_cycle;Max_cycle;Signal;HPM_P1;HPM_P2
2023/10/18 00:01:05;;;;;;;12.90;11.60;;;;;;;6.73;100.00;99909.75;5022785;28;20185;-80
2023/10/18 00:03:32;;;;;;;13.87;12.40;;;;;;;6.63;100.00;99908.88;5023172;28;20302;-82
2023/10/18 00:05:59;;;;;;;12.37;11.23;;;;;;;6.65;100.00;99908.03;5020769;28;20184;-81
2023/10/18 00:08:25;;;;;;;12.43;11.33;;;;;;;6.64;100.00;99900.31;5018936;28;20175;-82
2023/10/18 00:10:53;;;;;;;12.43;11.13;;;;;;;6.64;100.00;99900.31;5024362;28;20241;-84
2023/10/18 00:13:18;;;;;;;12.27;11.07;;;;;;;6.53;100.00;99897.72;5012927;28;20205;-83
2023/10/18 00:15:43;;;;;;;12.67;11.47;;;;;;;6.49;100.00;99901.16;5023742;28;20254;-80
2023/10/18 00:18:11;;;;;;;13.10;11.43;;;;;;;6.53;100.00;99898.56;5018632;28;20675;-84
2023/10/18 00:20:37;;;;;;;12.93;11.67;;;;;;;6.49;100.00;99896.00;5023823;28;20172;-81
2023/10/18 00:23:03;;;;;;;14.43;12.40;;;;;;;6.67;100.00;99895.16;5019352;28;20208;-82
2023/10/18 00:25:29;;;;;;;12.07;10.87;;;;;;;6.66;100.00;99886.59;5014273;28;20192;-83
2023/10/18 00:27:54;;;;;;;14.47;12.80;;;;;;;6.75;100.00;99879.72;5019560;28;20704;-78
2023/10/18 00:30:19;;;;;;;13.43;12.23;;;;;;;6.62;100.00;99878.88;5023195;28;20183;-81
2023/10/18 00:32:45;;;;;;;13.40;12.20;;;;;;;6.55;100.00;99873.72;5009974;28;20207;-84
2023/10/18 00:35:31;;;;;;;14.10;12.17;;;;;;;6.66;100.00;99872.88;5047544;28;20188;-79
2023/10/18 00:37:59;;;;;;;14.07;12.57;;;;;;;6.75;100.00;99878.03;5018211;28;20287;-81
2023/10/18 00:42:53;;;;;;;12.30;11.20;;;;;;;6.48;100.00;99872.03;5017698;28;20718;-84
2023/10/18 00:45:21;;;;;;;13.70;12.30;;;;;;;6.62;100.00;99871.19;5022488;28;20219;-83
2023/10/18 00:47:47;;;;;;;13.53;12.13;;;;;;;6.53;100.00;99862.59;5018128;28;20228;-81
2023/10/18 00:50:14;;;;;;;14.10;12.70;;;;;;;6.51;100.00;99866.88;5021321;28;20194;-82
2023/10/18 00:52:40;;;;;;;13.40;11.97;;;;;;;6.43;100.00;99858.28;5027362;28;20207;-84
2023/10/18 00:55:08;;;;;;;13.53;12.13;;;;;;;6.38;100.00;99853.16;5019207;28;20241;-78
2023/10/18 00:57:37;;;;;;;14.27;12.77;;;;;;;6.47;100.00;99854.00;5044531;28;20258;-85
2023/10/18 01:00:18;;;;;;;13.40;12.13;;;;;;;6.38;100.00;99844.56;5044623;28;20188;-84
2023/10/18 01:02:45;;;;;;;14.90;13.40;;;;;;;6.37;100.00;99843.72;5027296;28;20211;-83
2023/10/18 01:05:15;;;;;;;14.30;13.00;;;;;;;6.45;100.00;99846.31;5019020;28;20991;-81
2023/10/18 01:07:41;;;;;;;13.47;12.07;;;;;;;6.36;100.00;99839.44;5023619;28;20197;-83
2023/10/18 01:10:09;;;;;;;13.97;12.57;;;;;;;6.30;100.00;99847.13;5024643;28;20565;-81
2023/10/18 01:12:34;;;;;;;13.47;12.17;;;;;;;6.24;100.00;99837.72;5023874;28;20204;-82
2023/10/18 01:15:01;;;;;;;13.57;12.27;;;;;;;6.24;100.00;99837.72;5021251;28;20890;-82
2023/10/18 01:17:26;;;;;;;14.13;12.83;;;;;;;6.20;100.00;99837.72;5021737;28;20952;-84
2023/10/18 01:19:53;;;;;;;13.93;12.47;;;;;;;6.19;100.00;99838.56;5023748;28;20191;-80
2023/10/18 01:22:19;;;;;;;14.83;13.33;;;;;;;6.16;100.00;99836.84;5013207;28;20211;-84
2023/10/18 01:24:45;;;;;;;14.00;12.70;;;;;;;6.13;100.00;99839.41;5017929;28;20326;-81
2023/10/18 01:27:12;;;;;;;13.87;12.53;;;;;;;6.12;100.00;99840.25;5018592;28;20252;-80
2023/10/18 01:29:38;;;;;;;13.80;12.40;;;;;;;6.12;100.00;99839.41;5018564;28;20184;-84
2023/10/18 01:32:04;;;;;;;13.17;11.87;;;;;;;6.10;100.00;99836.81;5016003;28;20208;-80
2023/10/18 01:34:31;;;;;;;14.10;12.80;;;;;;;6.10;100.00;99837.69;5013983;28;20196;-81
2023/10/18 01:36:57;;;;;;;13.77;12.37;;;;;;;6.10;100.00;99836.81;5016800;28;20651;-82
2023/10/18 01:39:29;;;;;;;12.47;11.27;;;;;;;6.08;100.00;99828.25;5019472;28;20937;-83
2023/10/18 01:41:55;;;;;;;14.03;12.50;;;;;;;6.06;100.00;99820.56;5019173;28;20302;-81
2023/10/18 01:44:27;;;;;;;12.10;10.90;;;;;;;6.06;100.00;99819.69;5016761;28;20184;-81
2023/10/18 01:46:55;;;;;;;12.43;11.20;;;;;;;6.08;100.00;99825.69;5015486;28;20197;-81
2023/10/18 01:49:28;;;;;;;11.73;10.63;;;;;;;6.07;100.00;99827.41;5016132;28;20191;-81
2023/10/18 01:51:54;;;;;;;11.90;10.80;;;;;;;6.08;100.00;99825.69;5020736;28;20237;-83
2023/10/18 01:54:20;;;;;;;12.73;11.43;;;;;;;6.09;100.00;99820.56;5022238;28;20195;-83
2023/10/18 01:56:51;;;;;;;12.53;11.43;;;;;;;6.09;100.00;99814.56;5017286;28;20190;-81
2023/10/18 01:59:17;;;;;;;11.37;10.27;;;;;;;6.07;100.00;99816.25;5016225;28;20194;-81
2023/10/18 02:01:44;;;;;;;11.80;10.70;;;;;;;6.05;100.00;99815.44;5010056;28;21060;-82
2023/10/18 02:04:23;;;;;;;11.07;9.93;;;;;;;6.02;100.00;99818.81;5016510;28;20298;-82
2023/10/18 02:06:50;;;;;;;11.40;10.33;;;;;;;6.02;100.00;99817.97;5014606;28;20192;-80
2023/10/18 02:09:16;;;;;;;11.70;10.50;;;;;;;6.01;100.00;99819.69;5017925;28;20249;-82
2023/10/18 02:11:43;;;;;;;12.17;11.07;;;;;;;6.01;100.00;99818.84;5012578;28;21017;-80
2023/10/18 02:14:09;;;;;;;11.73;10.63;;;;;;;6.01;100.00;99822.25;5015010;28;20274;-83
2023/10/18 02:16:34;;;;;;;12.03;10.83;;;;;;;6.01;100.00;99818.84;5010170;28;20191;-85
2023/10/18 02:19:00;;;;;;;11.80;10.70;;;;;;;5.99;100.00;99816.22;5008623;28;20298;-85
2023/10/18 02:21:26;;;;;;;11.30;10.20;;;;;;;5.98;100.00;99817.06;5001698;28;20664;-80
2023/10/18 02:23:52;;;;;;;11.67;10.53;;;;;;;5.91;100.00;99817.91;5007644;28;20676;-81
2023/10/18 02:28:55;;;;;;;9.43;8.63;;;;;;;5.72;100.00;99810.16;5019121;28;20183;-82
2023/10/18 02:31:23;;;;;;;10.13;8.97;;;;;;;5.65;100.00;99806.72;5013918;28;20183;-84
2023/10/18 02:33:49;;;;;;;9.50;8.67;;;;;;;5.59;100.00;99795.56;5016463;28;20211;-81
2023/10/18 02:36:21;;;;;;;8.97;8.07;;;;;;;5.56;100.00;99800.69;5009549;28;20552;-79
2023/10/18 02:38:49;;;;;;;9.27;8.37;;;;;;;5.52;100.00;99804.13;5012252;28;20300;-79
2023/10/18 02:41:15;;;;;;;9.03;8.23;;;;;;;5.49;100.00;99797.25;5024153;28;20509;-81
2023/10/18 02:43:48;;;;;;;8.27;7.57;;;;;;;5.46;100.00;99792.97;5012264;28;20270;-80
2023/10/18 02:46:24;;;;;;;9.70;8.73;;;;;;;5.43;100.00;99790.38;5012616;28;20279;-85
2023/10/18 02:48:51;;;;;;;8.83;8.03;;;;;;;5.37;100.00;99790.34;5019516;28;20229;-81
2023/10/18 02:51:22;;;;;;;8.20;7.50;;;;;;;5.34;100.00;99791.19;5020292;28;20233;-83
2023/10/18 02:54:21;;;;;;;9.43;8.50;;;;;;;5.34;100.00;99791.19;5014627;28;20208;-82
2023/10/18 02:56:50;;;;;;;8.43;7.67;;;;;;;5.34;100.00;99791.19;5019416;28;20195;-80
2023/10/18 02:59:25;;;;;;;8.77;7.97;;;;;;;5.36;100.00;99787.78;5012708;28;20203;-85
2023/10/18 03:01:55;;;;;;;8.30;7.60;;;;;;;5.37;100.00;99786.94;5036717;28;20191;-77
2023/10/18 03:04:23;;;;;;;9.20;8.27;;;;;;;5.37;100.00;99772.38;5049261;28;20187;-77
2023/10/18 03:06:51;;;;;;;9.30;8.40;;;;;;;5.36;100.00;99770.69;5030220;28;20191;-83
2023/10/18 03:11:54;;;;;;;9.17;8.33;;;;;;;5.31;100.00;99765.50;5021156;28;20694;-81
2023/10/18 03:14:36;;;;;;;8.50;7.77;;;;;;;5.29;100.00;99768.94;5019145;28;20697;-81
2023/10/18 03:17:13;;;;;;;8.70;7.87;;;;;;;5.28;100.00;99765.53;5019038;28;20565;-82
2023/10/18 03:19:39;;;;;;;9.13;8.23;;;;;;;5.28;100.00;99762.09;5021272;28;20191;-84
2023/10/18 03:22:04;;;;;;;8.70;7.90;;;;;;;5.30;100.00;99766.38;5015275;28;20218;-82
2023/10/18 03:24:32;;;;;;;10.10;9.13;;;;;;;5.31;100.00;99759.53;5017044;28;20221;-82
2023/10/18 03:27:07;;;;;;;9.50;8.70;;;;;;;5.34;100.00;99751.84;5023509;28;20191;-80
2023/10/18 03:29:32;;;;;;;10.10;9.20;;;;;;;5.35;100.00;99743.31;5021345;28;20658;-82
2023/10/18 03:31:59;;;;;;;9.60;8.70;;;;;;;5.35;100.00;99740.75;5008381;28;20212;-81
2023/10/18 03:34:28;;;;;;;12.37;11.07;;;;;;;5.34;100.00;99733.91;5018732;28;20237;-82
2023/10/18 03:36:53;;;;;;;11.20;10.10;;;;;;;5.33;100.00;99727.06;5018320;28;20257;-84
2023/10/18 03:39:19;;;;;;;13.70;11.67;;;;;;;5.42;100.00;99724.50;5019662;28;20246;-84
2023/10/18 03:41:50;;;;;;;14.53;12.97;;;;;;;5.48;100.00;99708.25;5021083;28;20204;-82
2023/10/18 03:44:21;;;;;;;14.03;12.63;;;;;;;5.47;100.00;99714.25;5020885;28;20315;-83
2023/10/18 03:46:47;;;;;;;13.97;12.57;;;;;;;5.37;100.00;99721.06;5013318;28;20184;-80
2023/10/18 03:49:31;;;;;;;14.27;12.43;;;;;;;5.38;100.00;99730.47;5019443;28;22504;-82
2023/10/18 03:57:28;;;;;;;14.20;12.90;;;;;;;5.40;100.00;99715.94;5026706;28;20282;-81
2023/10/18 04:00:22;;;;;;;14.77;13.27;;;;;;;5.39;100.00;99714.22;5017959;28;20184;-85
2023/10/18 04:02:46;;;;;;;13.87;12.40;;;;;;;5.36;100.00;99713.38;5017591;28;20722;-85
2023/10/18 04:05:22;;;;;;;12.77;11.53;;;;;;;5.36;100.00;99714.25;5012164;28;20235;-79
2023/10/18 04:07:48;;;;;;;15.13;13.33;;;;;;;5.43;100.00;99720.25;5019138;28;20302;-85
2023/10/18 04:10:17;;;;;;;14.03;12.63;;;;;;;5.40;100.00;99709.97;5014176;28;20295;-80
2023/10/18 04:12:43;;;;;;;14.13;12.53;;;;;;;5.38;100.00;99706.53;5017153;28;20230;-79
2023/10/18 04:15:23;;;;;;;14.37;12.90;;;;;;;5.38;100.00;99691.97;5017328;28;20199;-82
2023/10/18 04:20:32;;;;;;;15.20;13.77;;;;;;;5.42;100.00;99677.47;5019416;28;20293;-82
2023/10/18 04:22:58;;;;;;;14.63;13.13;;;;;;;5.42;100.00;99677.47;5043428;28;20354;-82
2023/10/18 04:25:26;;;;;;;17.40;14.87;;;;;;;5.45;100.00;99669.75;5022385;28;20180;-79
2023/10/18 04:27:57;;;;;;;16.53;14.73;;;;;;;5.54;100.00;99666.34;5022966;28;20674;-80
2023/10/18 04:30:23;;;;;;;15.97;14.30;;;;;;;5.41;100.00;99665.50;5019301;28;20180;-84
2023/10/18 04:33:35;;;;;;;14.97;13.47;;;;;;;5.39;100.00;99664.63;5018371;28;20204;-84
2023/10/18 04:35:45;;;;;;;16.20;14.50;;;;;;;5.37;100.00;99668.88;5018081;28;20195;-80
2023/10/18 04:38:23;;;;;;;17.80;15.90;;;;;;;5.37;100.00;99674.03;5016835;28;20188;-83
2023/10/18 04:43:32;;;;;;;16.50;14.80;;;;;;;5.35;100.00;99663.78;5014539;28;20684;-80
2023/10/18 04:45:59;;;;;;;16.67;14.97;;;;;;;5.28;100.00;99667.16;5021793;28;20188;-85
2023/10/18 04:48:59;;;;;;;16.53;14.73;;;;;;;5.33;100.00;99661.19;5019997;28;20187;-84
2023/10/18 04:51:26;;;;;;;17.50;15.43;;;;;;;5.42;100.00;99662.06;5018766;28;20188;-76
2023/10/18 04:54:27;;;;;;;17.10;15.40;;;;;;;5.32;100.00;99662.03;5050314;28;20211;-80
2023/10/18 04:56:56;;;;;;;17.70;15.90;;;;;;;5.39;100.00;99655.19;5020064;28;20190;-83
2023/10/18 05:04:38;;;;;;;19.00;17.00;;;;;;;5.44;100.00;99643.25;5027489;28;20203;-84
2023/10/18 05:07:14;;;;;;;17.77;15.90;;;;;;;5.33;100.00;99648.34;5034048;28;20180;-82
2023/10/18 05:14:42;;;;;;;19.00;17.17;;;;;;;5.52;100.00;99634.72;5021261;28;20270;-81
2023/10/18 05:17:10;;;;;;;18.00;16.10;;;;;;;5.73;100.00;99628.75;5024809;28;20544;-83
2023/10/18 05:19:41;;;;;;;19.00;16.87;;;;;;;5.70;100.00;99629.56;5019321;28;20247;-79
2023/10/18 05:22:20;;;;;;;19.33;17.37;;;;;;;5.79;100.00;99633.84;5015530;28;20299;-81
2023/10/18 05:24:54;;;;;;;16.73;15.03;;;;;;;5.57;100.00;99628.72;5041744;28;20895;-80
2023/10/18 05:27:24;;;;;;;18.87;16.97;;;;;;;5.72;100.00;99627.03;5019631;28;20187;-82
2023/10/18 05:29:53;;;;;;;18.57;16.70;;;;;;;5.70;100.00;99621.03;5023848;28;20191;-83
2023/10/18 05:35:19;;;;;;;20.00;17.37;;;;;;;5.84;100.00;99609.03;5018957;28;20235;-81
2023/10/18 05:37:51;;;;;;;18.60;16.70;;;;;;;5.80;100.00;99610.75;5021290;28;20194;-80
2023/10/18 05:43:04;;;;;;;19.90;16.63;;;;;;;5.76;100.00;99585.06;5015834;28;20219;-80
2023/10/18 05:45:31;;;;;;;18.33;16.43;;;;;;;5.76;100.00;99595.34;5013183;28;20225;-82
2023/10/18 05:47:58;;;;;;;18.73;16.80;;;;;;;5.83;100.00;99597.06;5017698;28;20276;-81
2023/10/18 05:50:24;;;;;;;17.70;15.93;;;;;;;5.75;100.00;99589.34;5020454;28;20620;-81
2023/10/18 05:52:57;;;;;;;16.93;15.27;;;;;;;5.73;100.00;99595.38;5021567;28;20753;-82
2023/10/18 05:55:23;;;;;;;18.63;16.67;;;;;;;5.76;100.00;99591.06;5023907;28;20187;-83
2023/10/18 05:57:50;;;;;;;20.43;18.07;;;;;;;5.88;100.00;99589.34;5022801;28;20753;-83
2023/10/18 06:00:18;;;;;;;18.03;16.13;;;;;;;5.82;100.00;99587.66;5023664;28;20188;-83
2023/10/18 06:02:45;;;;;;;18.17;16.27;;;;;;;5.83;100.00;99597.06;5015101;28;20223;-85
2023/10/18 06:05:11;;;;;;;20.33;16.40;;;;;;;5.89;100.00;99589.34;5022309;28;20310;-82
2023/10/18 06:07:36;;;;;;;17.90;16.07;;;;;;;5.93;100.00;99582.50;5025317;28;20266;-79
2023/10/18 06:10:13;;;;;;;18.13;16.33;;;;;;;6.01;100.00;99582.53;5016131;28;20191;-80
2023/10/18 06:12:41;;;;;;;17.33;15.53;;;;;;;5.98;100.00;99578.19;5013720;28;20239;-83
2023/10/18 06:15:10;;;;;;;18.03;16.30;;;;;;;6.01;100.00;99573.09;5016068;28;20205;-81
2023/10/18 06:17:50;;;;;;;18.50;16.57;;;;;;;6.14;100.00;99565.34;5020776;28;20266;-83
2023/10/18 06:20:28;;;;;;;17.50;15.60;;;;;;;6.24;100.00;99561.91;5019519;28;20742;-82
2023/10/18 06:23:08;;;;;;;17.87;15.97;;;;;;;6.19;100.00;99554.22;5015278;28;20204;-84
2023/10/18 06:25:44;;;;;;;21.13;16.80;;;;;;;6.28;100.00;99563.59;5039996;28;20180;-87
2023/10/18 06:28:19;;;;;;;18.20;16.40;;;;;;;6.31;100.00;99557.63;5016405;28;20200;-86
2023/10/18 06:30:45;;;;;;;19.20;17.20;;;;;;;6.31;100.00;99562.75;5021245;28;20816;-79
2023/10/18 06:33:12;;;;;;;18.73;16.83;;;;;;;6.37;100.00;99561.00;5017339;28;20632;-83
2023/10/18 06:35:42;;;;;;;20.67;16.93;;;;;;;6.39;100.00;99563.56;5010485;28;20706;-77
2023/10/18 06:38:10;;;;;;;17.67;15.97;;;;;;;6.42;100.00;99562.72;5026417;28;20667;-81
2023/10/18 06:40:51;;;;;;;18.23;16.37;;;;;;;6.48;100.00;99560.97;5026356;28;20242;-80
2023/10/18 06:43:17;;;;;;;18.37;16.47;;;;;;;6.53;100.00;99555.81;5022546;28;20223;-81
2023/10/18 06:45:42;;;;;;;19.47;16.80;;;;;;;6.56;100.00;99558.38;5023871;28;20239;-82
2023/10/18 06:48:14;;;;;;;18.77;16.83;;;;;;;6.59;100.00;99554.94;5028023;28;20233;-81
2023/10/18 06:50:40;;;;;;;17.43;15.73;;;;;;;6.61;100.00;99556.63;5018116;28;20723;-82
2023/10/18 06:53:11;;;;;;;17.77;16.07;;;;;;;6.67;100.00;99556.59;5025219;28;20214;-84
2023/10/18 06:55:55;;;;;;;18.67;16.67;;;;;;;6.75;100.00;99551.44;5021666;28;20648;-82
2023/10/18 07:01:00;;;;;;;16.77;15.17;;;;;;;6.84;100.00;99555.66;5027557;28;20907;-81
2023/10/18 07:03:27;;;;;;;17.50;15.73;;;;;;;6.98;100.00;99565.84;5029773;28;20225;-78
2023/10/18 07:05:54;;;;;;;16.37;14.77;;;;;;;7.05;100.00;99566.69;5024313;28;20329;-83
2023/10/18 07:08:20;;;;;;;17.07;15.40;;;;;;;7.16;100.00;99560.59;5025858;28;20562;-81
2023/10/18 07:10:53;;;;;;;16.93;15.23;;;;;;;7.25;100.00;99564.00;5043471;28;20227;-79
2023/10/18 07:13:24;;;;;;;15.40;13.83;;;;;;;7.35;100.00;99569.91;5048447;28;20207;-80
2023/10/18 07:15:51;;;;;;;14.90;13.50;;;;;;;7.43;100.00;99563.00;5021757;28;20232;-80
2023/10/18 07:18:16;;;;;;;16.83;15.07;;;;;;;7.52;100.00;99565.50;5014270;28;20850;-80
2023/10/18 07:20:41;;;;;;;17.17;15.57;;;;;;;7.57;100.00;99570.59;5020653;28;20419;-80
2023/10/18 07:23:17;;;;;;;17.30;15.53;;;;;;;7.60;100.00;99580.88;5013221;28;20241;-79
2023/10/18 07:25:43;;;;;;;16.23;14.60;;;;;;;7.66;100.00;99564.50;5014517;28;20447;-83
2023/10/18 07:28:09;;;;;;;16.70;15.00;;;;;;;7.70;100.00;99563.63;5022507;28;20703;-80
2023/10/18 07:30:43;;;;;;;16.73;15.07;;;;;;;7.75;100.00;99551.56;5023864;28;20187;-80
2023/10/18 07:33:12;;;;;;;17.17;15.30;;;;;;;7.71;100.00;99548.19;5017879;28;20344;-81
2023/10/18 07:35:44;;;;;;;15.73;14.23;;;;;;;7.76;100.00;99537.84;5016856;28;20195;-83
2023/10/18 07:38:09;;;;;;;17.27;15.47;;;;;;;7.70;100.00;99541.31;5049527;28;20938;-80
2023/10/18 07:40:37;;;;;;;16.10;14.53;;;;;;;7.74;100.00;99532.69;5015254;28;20230;-82
2023/10/18 07:43:07;;;;;;;16.07;14.47;;;;;;;7.78;100.00;99543.81;5020267;28;20568;-81
2023/10/18 07:45:33;;;;;;;15.93;14.23;;;;;;;7.89;100.00;99538.53;5015019;28;20187;-82
2023/10/18 07:47:58;;;;;;;15.73;14.13;;;;;;;8.03;100.00;99523.78;5017275;28;20195;-83
2023/10/18 07:50:41;;;;;;;16.37;14.77;;;;;;;8.10;100.00;99529.72;5022245;28;20265;-79
2023/10/18 07:53:11;;;;;;;14.53;13.23;;;;;;;8.25;100.00;99531.28;5022194;28;20300;-80
2023/10/18 07:55:36;;;;;;;13.93;12.73;;;;;;;8.44;100.00;99536.25;5016490;28;20191;-79
2023/10/18 07:58:17;;;;;;;12.70;11.57;;;;;;;8.65;100.00;99537.72;5018015;28;20195;-80
2023/10/18 08:01:46;;;;;;;13.63;12.33;;;;;;;8.78;100.00;99533.22;5018244;28;20194;-81
2023/10/18 08:03:32;;;;;;;14.10;12.80;;;;;;;8.84;100.00;99534.03;5010317;28;20545;-78
2023/10/18 08:06:06;;;;;;;12.17;11.17;;;;;;;8.85;100.00;99522.81;5020769;28;20191;-84
2023/10/18 08:08:31;;;;;;;14.43;12.93;;;;;;;8.84;100.00;99512.53;5018350;28;20916;-80
2023/10/18 08:10:59;;;;;;;13.17;11.97;;;;;;;8.82;100.00;99509.09;5015272;28;20198;-81
2023/10/18 08:13:28;;;;;;;14.90;13.40;;;;;;;8.77;100.00;99503.19;5016214;28;20207;-82
2023/10/18 08:16:01;;;;;;;13.40;12.03;;;;;;;8.76;100.00;99493.72;5013655;28;20192;-84
2023/10/18 08:18:42;;;;;;;16.27;14.57;;;;;;;8.76;100.00;99502.31;5017666;28;20574;-78
2023/10/18 08:21:25;;;;;;;12.50;11.40;;;;;;;8.90;100.00;99496.09;5019810;28;20193;-80
2023/10/18 08:23:53;;;;;;;14.83;13.33;;;;;;;8.99;100.00;99494.22;5017856;28;20816;-82
2023/10/18 08:26:20;;;;;;;14.17;12.73;;;;;;;9.18;100.00;99493.06;5018703;28;20188;-81
2023/10/18 08:28:46;;;;;;;12.00;11.00;;;;;;;9.45;100.00;99495.19;5016104;28;20192;-83
2023/10/18 08:31:38;;;;;;;11.67;10.50;;;;;;;9.64;100.00;99489.72;5013888;28;20182;-80
2023/10/18 08:34:06;;;;;;;15.63;13.63;;;;;;;9.40;100.00;99486.69;5015548;28;20207;-82
2023/10/18 08:36:32;;;;;;;14.47;12.87;;;;;;;9.30;100.00;99487.75;5017399;28;20175;-80
2023/10/18 08:38:58;;;;;;;14.77;13.27;;;;;;;9.55;100.00;99493.31;5022107;28;20655;-81
2023/10/18 08:41:37;;;;;;;15.20;13.80;;;;;;;9.46;100.00;99496.91;5020011;28;20659;-85
2023/10/18 08:44:08;;;;;;;13.03;11.93;;;;;;;9.59;100.00;99499.31;5022693;28;20262;-84
2023/10/18 08:46:41;;;;;;;13.50;12.20;;;;;;;9.74;100.00;99501.59;5021667;28;20183;-84
2023/10/18 08:49:09;;;;;;;12.67;11.53;;;;;;;10.07;100.00;99493.22;5019479;28;20216;-82
2023/10/18 08:51:37;;;;;;;13.63;12.43;;;;;;;10.00;100.00;99491.63;5014034;28;20375;-82
2023/10/18 08:54:09;;;;;;;13.10;11.67;;;;;;;10.16;100.00;99489.63;5022904;28;20190;-82
2023/10/18 08:56:35;;;;;;;12.30;11.20;;;;;;;10.39;100.00;99493.47;5014904;28;20187;-81
2023/10/18 08:59:11;;;;;;;13.80;12.40;;;;;;;10.21;99.72;99487.78;5023526;28;20187;-83
2023/10/18 09:01:36;;;;;;;12.53;11.43;;;;;;;10.33;99.84;99481.50;5021707;28;20206;-77
2023/10/18 09:04:02;;;;;;;12.20;11.00;;;;;;;10.31;100.00;99478.09;5023754;28;20184;-81
2023/10/18 09:06:33;;;;;;;11.87;10.87;;;;;;;10.60;99.39;99477.50;5029954;28;20184;-80
2023/10/18 09:09:17;;;;;;;12.67;11.37;;;;;;;10.68;98.42;99478.19;5045334;28;20185;-78
2023/10/18 09:11:47;;;;;;;11.80;10.77;;;;;;;10.90;100.00;99476.84;5032311;28;20188;-83
2023/10/18 09:14:15;;;;;;;11.77;10.67;;;;;;;10.95;100.00;99481.03;5024404;28;20179;-85
2023/10/18 09:16:42;;;;;;;11.33;10.33;;;;;;;11.04;100.00;99476.53;5021717;28;20180;-81
2023/10/18 09:19:09;;;;;;;11.23;10.13;;;;;;;11.08;100.00;99475.56;5020205;28;20242;-84
2023/10/18 09:24:22;;;;;;;10.50;9.60;;;;;;;11.07;100.00;99464.34;5016817;28;20609;-81
2023/10/18 09:26:49;;;;;;;9.87;8.93;;;;;;;11.20;100.00;99467.50;5020378;28;20186;-86
2023/10/18 09:29:16;;;;;;;10.83;9.93;;;;;;;11.37;100.00;99463.63;5019331;28;20206;-78
2023/10/18 09:31:54;;;;;;;9.80;9.00;;;;;;;11.39;100.00;99461.84;5044912;28;20184;-77
2023/10/18 09:34:20;;;;;;;11.27;10.37;;;;;;;11.35;100.00;99458.47;5018389;28;20603;-82
2023/10/18 09:36:56;;;;;;;12.37;11.27;;;;;;;11.34;100.00;99461.13;5020517;28;20258;-80
2023/10/18 09:39:21;;;;;;;10.70;9.70;;;;;;;11.35;100.00;99453.28;5015761;28;20219;-79
2023/10/18 09:41:47;;;;;;;11.00;10.10;;;;;;;11.40;100.00;99448.84;5017971;28;20203;-79
2023/10/18 09:44:13;;;;;;;10.87;9.83;;;;;;;11.59;100.00;99446.63;5021228;28;20175;-82
2023/10/18 09:46:39;;;;;;;10.63;9.73;;;;;;;11.84;100.00;99443.38;5017970;28;20195;-80
2023/10/18 09:49:09;;;;;;;12.10;11.10;;;;;;;12.01;99.75;99437.75;5017112;28;20187;-82
2023/10/18 09:51:42;;;;;;;10.30;9.33;;;;;;;12.10;100.00;99431.44;5021424;28;20192;-80
2023/10/18 09:54:12;;;;;;;10.77;9.80;;;;;;;12.22;99.23;99426.78;5021083;28;20194;-82
2023/10/18 09:56:40;;;;;;;9.90;9.10;;;;;;;12.24;99.22;99431.06;5017841;28;20223;-80
2023/10/18 09:59:12;;;;;;;9.50;8.60;;;;;;;12.29;99.69;99430.91;5017697;28;20192;-79
2023/10/18 10:04:13;;;;;;;10.33;9.53;;;;;;;12.32;99.25;99429.06;5013956;28;20191;-82
2023/10/18 10:06:45;;;;;;;9.27;8.47;;;;;;;12.30;99.02;99420.47;5016372;28;20202;-82
2023/10/18 10:11:45;;;;;;;9.83;9.03;;;;;;;12.37;99.35;99413.34;5035951;28;20188;-79
2023/10/18 10:14:12;;;;;;;10.00;9.10;;;;;;;12.41;99.11;99414.97;5026184;28;20230;-84
2023/10/18 10:16:44;;;;;;;10.90;9.97;;;;;;;12.49;97.70;99409.53;5020409;28;20659;-81
2023/10/18 10:19:11;;;;;;;10.70;9.80;;;;;;;12.49;96.50;99407.78;5011618;28;20214;-80
2023/10/18 10:21:38;;;;;;;11.53;10.37;;;;;;;12.48;96.67;99420.81;5017723;28;20197;-80
2023/10/18 10:24:29;;;;;;;10.07;9.10;;;;;;;12.47;96.72;99409.59;5008341;28;20277;-84
2023/10/18 10:26:53;;;;;;;11.53;9.83;;;;;;;12.49;96.15;99405.19;5015219;28;20192;-81
2023/10/18 10:29:42;;;;;;;10.77;9.87;;;;;;;12.47;95.26;99399.22;5017145;28;20188;-79
2023/10/18 10:32:06;;;;;;;11.30;10.27;;;;;;;12.35;95.39;99392.66;5016609;28;20323;-79
2023/10/18 10:34:38;;;;;;;12.53;11.33;;;;;;;12.10;95.08;99386.50;5018296;28;20251;-81
2023/10/18 10:37:09;;;;;;;10.53;9.63;;;;;;;12.12;95.55;99377.78;5023600;28;20192;-80
2023/10/18 10:39:43;;;;;;;10.13;9.23;;;;;;;12.13;95.96;99373.44;5017067;28;20213;-79
2023/10/18 10:42:53;;;;;;;10.43;9.53;;;;;;;12.12;96.02;99367.41;5015811;28;20219;-81
2023/10/18 10:45:10;;;;;;;12.27;11.10;;;;;;;12.17;96.02;99364.66;5026305;28;20227;-80
2023/10/18 10:47:42;;;;;;;10.60;9.63;;;;;;;12.28;96.03;99357.41;5016985;28;20239;-81
2023/10/18 10:50:09;;;;;;;9.33;8.53;;;;;;;12.43;95.68;99356.09;5018073;28;20179;-83
2023/10/18 10:52:38;;;;;;;9.60;8.67;;;;;;;12.55;95.80;99351.41;5016154;28;20575;-82
2023/10/18 10:55:21;;;;;;;10.43;9.53;;;;;;;12.69;95.50;99346.59;5021209;28;20189;-83
2023/10/18 10:57:48;;;;;;;9.10;8.40;;;;;;;12.75;95.66;99337.75;5014937;28;20180;-81
2023/10/18 11:03:06;;;;;;;8.40;7.77;;;;;;;12.87;95.27;99349.50;5012575;28;20383;-79
2023/10/18 11:05:36;;;;;;;9.23;8.43;;;;;;;12.93;95.06;99350.13;5016828;28;20190;-79
2023/10/18 11:08:01;;;;;;;9.63;8.83;;;;;;;12.95;94.79;99348.34;5017279;28;20216;-79
2023/10/18 11:10:28;;;;;;;8.60;7.90;;;;;;;13.08;94.43;99333.16;5034620;28;20235;-77
2023/10/18 11:12:54;;;;;;;8.70;7.90;;;;;;;13.20;94.39;99333.66;5046980;28;20186;-76
2023/10/18 11:15:27;;;;;;;7.97;7.23;;;;;;;13.34;93.68;99334.00;5024265;28;20218;-82
2023/10/18 11:18:06;;;;;;;9.03;8.07;;;;;;;13.50;92.42;99326.53;5019005;28;20234;-80
2023/10/18 11:20:48;;;;;;;8.33;7.63;;;;;;;13.63;90.76;99308.75;5021182;28;20691;-78
2023/10/18 11:23:13;;;;;;;9.80;8.03;;;;;;;13.73;90.38;99311.84;5013836;28;20239;-83
2023/10/18 11:25:41;;;;;;;9.40;8.60;;;;;;;13.80;88.29;99309.88;5019389;28;20217;-82
2023/10/18 11:28:20;;;;;;;8.57;7.87;;;;;;;13.77;89.51;99313.41;5026230;28;20567;-81
2023/10/18 11:30:46;;;;;;;9.40;8.60;;;;;;;13.82;90.55;99300.25;5024205;28;20186;-82
2023/10/18 11:33:17;;;;;;;8.83;7.93;;;;;;;13.86;91.04;99294.00;5024204;28;20230;-81
2023/10/18 11:35:48;;;;;;;8.93;8.13;;;;;;;13.86;91.10;99294.88;5022458;28;20192;-81
2023/10/18 11:38:19;;;;;;;9.67;8.87;;;;;;;13.93;91.07;99279.88;5021615;28;20252;-83
2023/10/18 11:40:50;;;;;;;9.57;8.77;;;;;;;13.93;91.38;99279.88;5019541;28;20699;-79
2023/10/18 11:43:25;;;;;;;10.53;9.50;;;;;;;13.84;91.33;99272.44;5015494;28;21109;-81
2023/10/18 11:46:05;;;;;;;9.13;8.10;;;;;;;13.99;91.52;99260.56;5017328;28;20234;-80
2023/10/18 11:48:35;;;;;;;8.90;8.20;;;;;;;14.17;90.42;99245.97;5019172;28;20284;-80
2023/10/18 11:51:02;;;;;;;8.47;7.73;;;;;;;14.28;90.70;99241.19;5011822;28;20188;-83
2023/10/18 11:53:28;;;;;;;8.27;7.67;;;;;;;14.40;90.55;99241.59;5011886;28;20199;-80
2023/10/18 11:55:56;;;;;;;8.13;7.53;;;;;;;14.43;90.57;99244.06;5014075;28;20889;-81
2023/10/18 11:58:29;;;;;;;9.00;8.20;;;;;;;14.50;90.70;99235.09;5017660;28;20210;-81
2023/10/18 12:01:06;;;;;;;8.43;7.63;;;;;;;14.49;90.94;99238.59;5019439;28;20188;-78
2023/10/18 12:03:35;;;;;;;8.17;7.37;;;;;;;14.47;90.79;99238.66;5018944;28;20334;-81
2023/10/18 12:06:03;;;;;;;8.00;7.30;;;;;;;14.48;91.22;99236.91;5020243;28;20248;-80
2023/10/18 12:08:30;;;;;;;8.40;7.60;;;;;;;14.47;90.54;99238.66;5022143;28;20184;-81
2023/10/18 12:10:57;;;;;;;8.43;7.73;;;;;;;14.43;90.61;99244.91;5019070;28;20186;-80
2023/10/18 12:13:24;;;;;;;8.50;7.60;;;;;;;14.40;90.69;99257.22;5022841;28;20203;-81
2023/10/18 12:15:50;;;;;;;11.80;10.70;;;;;;;14.05;89.94;99242.13;5019339;28;20192;-80
2023/10/18 12:18:15;;;;;;;11.53;10.43;;;;;;;13.92;90.69;99239.16;5016971;28;21026;-80
2023/10/18 12:20:45;;;;;;;10.77;9.77;;;;;;;13.82;91.28;99230.88;5018032;28;20182;-83
2023/10/18 12:23:18;;;;;;;9.47;8.57;;;;;;;13.77;91.99;99222.41;5011471;28;20219;-81